Time;durP1;ratioP1;P1;durP2;ratioP2;P2;SDS_P1;SDS_P2;PMS_P1;PMS_P2;Temp;Humidity;BMP_temperature;BMP_pressure;BME280_temperature;BME280_humidity;BME280_pressure;Samples;Min_cycle;Max_cycle;Signal;HPM_P1;HPM_P2
2023/09/21 00:01:18;;;;;;;5.00;2.75;;;17.30;99.90;;;;;;4977314;28;20477;-77
2023/09/21 00:03:44;;;;;;;4.75;2.85;;;17.30;99.90;;;;;;4994243;28;20045;-76
2023/09/21 00:06:10;;;;;;;5.82;2.85;;;17.30;99.90;;;;;;4977040;28;20421;-77
2023/09/21 00:08:36;;;;;;;5.80;3.08;;;17.30;99.90;;;;;;4973610;28;20054;-76
2023/09/21 00:11:04;;;;;;;4.50;2.50;;;17.30;99.90;;;;;;4973139;28;20063;-76
2023/09/21 00:13:32;;;;;;;5.90;2.50;;;17.30;99.90;;;;;;4975591;28;20088;-76
2023/09/21 00:16:01;;;;;;;5.60;2.60;;;17.30;99.90;;;;;;4976057;28;20058;-76
2023/09/21 00:18:27;;;;;;;4.13;2.75;;;17.20;99.90;;;;;;4976919;28;20064;-77
2023/09/21 00:20:53;;;;;;;6.82;2.75;;;17.20;99.90;;;;;;4976943;28;20064;-77
2023/09/21 00:23:25;;;;;;;8.48;3.08;;;17.30;99.90;;;;;;4993784;28;20657;-77
2023/09/21 00:25:58;;;;;;;5.50;3.03;;;17.30;99.90;;;;;;4976158;28;20493;-77
2023/09/21 00:28:28;;;;;;;4.68;2.30;;;17.30;99.90;;;;;;4977712;28;20109;-77
2023/09/21 00:30:58;;;;;;;4.80;2.90;;;17.30;99.90;;;;;;4975497;28;20545;-77
2023/09/21 00:33:29;;;;;;;5.03;2.92;;;17.30;99.90;;;;;;4976514;28;20100;-77
2023/09/21 00:35:59;;;;;;;6.90;2.78;;;17.20;99.90;;;;;;4976705;28;20406;-77
2023/09/21 00:38:25;;;;;;;7.43;2.55;;;17.30;99.90;;;;;;4976258;28;20129;-76
2023/09/21 00:41:00;;;;;;;5.70;2.70;;;17.20;99.90;;;;;;4993186;28;20378;-76
2023/09/21 00:43:27;;;;;;;6.85;2.78;;;17.20;99.90;;;;;;4977100;28;20061;-76
2023/09/21 00:45:55;;;;;;;4.85;2.80;;;17.10;99.90;;;;;;4975490;28;20042;-76
2023/09/21 00:48:22;;;;;;;4.50;2.28;;;17.10;99.90;;;;;;4976353;28;20057;-76
2023/09/21 00:50:51;;;;;;;5.63;2.90;;;17.20;99.90;;;;;;4976109;28;20065;-76
2023/09/21 00:53:21;;;;;;;5.93;2.55;;;17.20;99.90;;;;;;4975872;28;20051;-76
2023/09/21 00:56:02;;;;;;;8.02;2.67;;;17.20;99.90;;;;;;4966110;28;20051;-76
2023/09/21 00:58:30;;;;;;;4.35;2.33;;;17.10;99.90;;;;;;4956228;28;20074;-76
2023/09/21 01:00:56;;;;;;;7.85;2.47;;;17.10;99.90;;;;;;4973918;28;20047;-76
2023/09/21 01:03:22;;;;;;;6.95;2.92;;;17.10;99.90;;;;;;4956719;28;20043;-77
2023/09/21 01:05:50;;;;;;;7.18;2.97;;;17.10;99.90;;;;;;4956056;28;20130;-76
2023/09/21 01:08:22;;;;;;;7.47;2.92;;;17.10;99.90;;;;;;4956930;28;20055;-77
2023/09/21 01:10:49;;;;;;;5.07;2.60;;;17.00;99.90;;;;;;4956473;28;20479;-77
2023/09/21 01:13:18;;;;;;;5.15;2.40;;;17.10;99.90;;;;;;4974073;28;20093;-77
2023/09/21 01:16:04;;;;;;;5.07;2.53;;;17.10;99.90;;;;;;4956362;28;20051;-75
2023/09/21 01:18:31;;;;;;;5.43;2.92;;;17.00;99.90;;;;;;4954708;28;20081;-76
2023/09/21 01:21:00;;;;;;;5.13;2.90;;;17.00;99.90;;;;;;4955740;28;20054;-76
2023/09/21 01:23:41;;;;;;;4.22;2.60;;;17.20;99.90;;;;;;4956607;28;20042;-77
2023/09/21 01:26:06;;;;;;;5.63;2.80;;;17.10;99.90;;;;;;4956122;28;20826;-76
2023/09/21 01:28:32;;;;;;;5.32;2.42;;;17.10;99.90;;;;;;4955753;28;20057;-77
2023/09/21 01:30:58;;;;;;;5.43;2.65;;;17.00;99.90;;;;;;4973835;28;20042;-76
2023/09/21 01:33:24;;;;;;;3.67;2.30;;;17.10;99.90;;;;;;4973492;28;20168;-77
2023/09/21 01:35:50;;;;;;;5.97;2.88;;;17.10;99.90;;;;;;4955877;28;20138;-77
2023/09/21 01:38:19;;;;;;;5.30;2.55;;;17.30;99.90;;;;;;4956568;28;20039;-77
2023/09/21 01:40:46;;;;;;;5.97;2.70;;;17.30;99.90;;;;;;4956072;28;20051;-77
2023/09/21 01:43:14;;;;;;;4.30;2.63;;;17.20;99.90;;;;;;4956278;28;20046;-77
2023/09/21 01:45:42;;;;;;;5.95;2.55;;;17.20;99.90;;;;;;4956620;28;20482;-77
2023/09/21 01:48:09;;;;;;;6.68;2.72;;;17.30;99.90;;;;;;4973132;28;20053;-77
2023/09/21 01:50:48;;;;;;;7.93;2.80;;;17.20;99.90;;;;;;4956012;28;20406;-77
2023/09/21 01:53:19;;;;;;;5.72;2.55;;;17.20;99.90;;;;;;4956798;28;20035;-76
2023/09/21 01:55:49;;;;;;;5.25;2.33;;;17.20;99.90;;;;;;4961415;28;20065;-77
2023/09/21 01:58:19;;;;;;;5.97;2.72;;;17.30;99.90;;;;;;4972162;28;20146;-77
2023/09/21 02:00:49;;;;;;;9.77;2.60;;;17.30;99.90;;;;;;4972420;28;20075;-77
2023/09/21 02:03:18;;;;;;;5.03;2.67;;;17.30;99.90;;;;;;4971923;28;20113;-77
2023/09/21 02:05:46;;;;;;;5.35;2.58;;;17.30;99.90;;;;;;4972477;28;20086;-77
2023/09/21 02:08:13;;;;;;;5.97;2.40;;;17.30;99.90;;;;;;4972299;28;20129;-76
2023/09/21 02:10:40;;;;;;;6.75;2.55;;;17.30;99.90;;;;;;4971242;28;20046;-76
2023/09/21 02:13:07;;;;;;;6.63;2.40;;;17.20;99.90;;;;;;4972243;28;20398;-77
2023/09/21 02:15:37;;;;;;;4.47;2.42;;;17.30;99.90;;;;;;4972053;28;20039;-77
2023/09/21 02:18:04;;;;;;;5.50;2.83;;;17.30;99.90;;;;;;4972024;28;20059;-76
2023/09/21 02:20:44;;;;;;;4.15;2.28;;;17.30;99.90;;;;;;4972181;28;20051;-76
2023/09/21 02:23:10;;;;;;;4.53;2.30;;;17.40;99.90;;;;;;4972823;28;20054;-77
2023/09/21 02:25:40;;;;;;;3.47;2.17;;;17.40;99.90;;;;;;4971798;28;20050;-76
2023/09/21 02:28:11;;;;;;;5.05;2.40;;;17.40;99.90;;;;;;4971621;28;20058;-76
2023/09/21 02:30:39;;;;;;;4.15;2.33;;;17.40;99.90;;;;;;4963972;28;20085;-77
2023/09/21 02:33:05;;;;;;;4.43;2.00;;;17.40;99.90;;;;;;4967251;28;20051;-77
2023/09/21 02:35:33;;;;;;;5.28;2.10;;;17.50;99.90;;;;;;4971308;28;20573;-76
2023/09/21 02:38:00;;;;;;;4.18;2.03;;;17.60;99.90;;;;;;4964748;28;20134;-76
2023/09/21 02:40:25;;;;;;;4.65;2.33;;;17.70;99.90;;;;;;4963408;28;20486;-76
2023/09/21 02:42:53;;;;;;;5.22;2.28;;;17.70;99.90;;;;;;4966737;28;20082;-76
2023/09/21 02:45:24;;;;;;;5.15;2.45;;;17.60;99.90;;;;;;4969010;28;20034;-76
2023/09/21 02:47:51;;;;;;;4.82;2.47;;;17.60;99.90;;;;;;4966672;28;20049;-76
2023/09/21 02:50:36;;;;;;;6.38;2.20;;;17.80;99.90;;;;;;4967430;28;20129;-76
2023/09/21 02:53:08;;;;;;;6.07;2.15;;;17.80;99.90;;;;;;4969334;28;20043;-76
2023/09/21 02:55:35;;;;;;;4.32;2.50;;;17.90;99.90;;;;;;4973896;28;20093;-76
2023/09/21 02:58:09;;;;;;;5.07;2.70;;;17.80;99.90;;;;;;4994608;28;20105;-76
2023/09/21 03:00:39;;;;;;;6.32;2.60;;;17.80;99.90;;;;;;4978187;28;20109;-76
2023/09/21 03:03:06;;;;;;;7.22;2.30;;;17.80;99.90;;;;;;4976625;28;20379;-76
2023/09/21 03:05:33;;;;;;;4.80;2.35;;;17.90;99.90;;;;;;4975578;28;20078;-76
2023/09/21 03:08:05;;;;;;;5.97;2.22;;;17.90;99.90;;;;;;4977476;28;20042;-77
2023/09/21 03:10:34;;;;;;;5.32;2.10;;;17.80;99.90;;;;;;4993884;28;20043;-77
2023/09/21 03:13:01;;;;;;;5.43;2.50;;;18.00;99.90;;;;;;4991437;28;20046;-76
2023/09/21 03:15:26;;;;;;;5.28;2.35;;;18.00;99.90;;;;;;4969613;28;20054;-76
2023/09/21 03:17:53;;;;;;;8.98;2.83;;;18.00;99.90;;;;;;4977804;28;20173;-76
2023/09/21 03:20:32;;;;;;;5.65;2.50;;;18.00;99.90;;;;;;4977419;28;20042;-76
2023/09/21 03:22:59;;;;;;;4.43;2.63;;;18.00;99.90;;;;;;4990944;28;20060;-76
2023/09/21 03:25:25;;;;;;;6.32;2.67;;;18.00;99.90;;;;;;4998104;28;20045;-76
2023/09/21 03:27:52;;;;;;;5.28;2.40;;;18.00;99.90;;;;;;4991506;28;20222;-77
2023/09/21 03:30:19;;;;;;;4.97;2.35;;;17.90;99.90;;;;;;4977611;28;20061;-77
2023/09/21 03:32:45;;;;;;;4.45;2.28;;;17.90;99.90;;;;;;4995245;28;20043;-76
2023/09/21 03:35:11;;;;;;;4.82;2.67;;;17.80;99.90;;;;;;4977280;28;20057;-76
2023/09/21 03:37:47;;;;;;;4.05;2.30;;;17.80;99.90;;;;;;4995526;28;20038;-76
2023/09/21 03:40:14;;;;;;;4.18;2.42;;;17.80;99.90;;;;;;4976374;28;20125;-77
2023/09/21 03:42:41;;;;;;;4.90;2.08;;;17.80;99.90;;;;;;4978055;28;20054;-77
2023/09/21 03:45:08;;;;;;;6.45;2.25;;;17.90;99.90;;;;;;4977459;28;20434;-77
2023/09/21 03:47:34;;;;;;;4.40;2.20;;;17.90;99.90;;;;;;4994560;28;20038;-77
2023/09/21 03:50:02;;;;;;;5.78;2.55;;;17.90;99.90;;;;;;4977132;28;20042;-76
2023/09/21 03:52:28;;;;;;;4.35;2.22;;;17.90;99.90;;;;;;4994830;28;20050;-76
2023/09/21 03:54:54;;;;;;;5.25;2.20;;;17.90;99.90;;;;;;4976665;28;20058;-77
2023/09/21 03:57:20;;;;;;;4.18;1.83;;;18.00;99.90;;;;;;4977032;28;20042;-77
2023/09/21 03:59:46;;;;;;;4.97;2.33;;;18.10;99.90;;;;;;4977416;28;20081;-76
2023/09/21 04:02:14;;;;;;;6.25;2.53;;;18.10;99.90;;;;;;4976857;28;20475;-76
2023/09/21 04:04:40;;;;;;;4.53;2.28;;;18.00;99.90;;;;;;4995025;28;20042;-77
2023/09/21 04:07:07;;;;;;;3.63;2.38;;;18.00;99.90;;;;;;4976790;28;20086;-77
2023/09/21 04:09:34;;;;;;;4.57;2.72;;;18.10;99.90;;;;;;4993876;28;20069;-77
2023/09/21 04:12:00;;;;;;;7.35;3.00;;;17.80;99.90;;;;;;4994529;28;20121;-77
2023/09/21 04:14:27;;;;;;;5.63;2.67;;;17.70;99.90;;;;;;4977281;28;20046;-77
2023/09/21 04:16:56;;;;;;;8.38;2.80;;;17.60;99.90;;;;;;4976261;28;20047;-77
2023/09/21 04:19:23;;;;;;;4.25;2.50;;;17.50;99.90;;;;;;4977586;28;20058;-77
2023/09/21 04:21:50;;;;;;;4.32;2.92;;;17.50;99.90;;;;;;4976632;28;20065;-77
2023/09/21 04:24:16;;;;;;;5.43;2.80;;;17.40;99.90;;;;;;4976141;28;20406;-76
2023/09/21 04:26:42;;;;;;;3.88;2.50;;;17.40;99.90;;;;;;4977262;28;20050;-76
2023/09/21 04:29:09;;;;;;;6.68;2.20;;;17.30;99.90;;;;;;4994365;28;20050;-77
2023/09/21 04:31:38;;;;;;;3.92;2.42;;;17.40;99.90;;;;;;4976706;28;20046;-77
2023/09/21 04:34:04;;;;;;;9.02;2.55;;;17.40;99.90;;;;;;4975963;28;20130;-76
2023/09/21 04:36:30;;;;;;;4.88;2.50;;;17.40;99.90;;;;;;4976603;28;20104;-76
2023/09/21 04:38:59;;;;;;;6.07;1.95;;;17.30;99.90;;;;;;4976405;28;20180;-76
2023/09/21 04:41:27;;;;;;;3.78;2.10;;;17.20;99.90;;;;;;4975910;28;20046;-76
2023/09/21 04:43:53;;;;;;;4.47;2.30;;;17.20;99.90;;;;;;4975336;28;20132;-79
2023/09/21 04:46:20;;;;;;;4.10;2.42;;;17.20;99.90;;;;;;4975817;28;20077;-76
2023/09/21 04:48:46;;;;;;;5.95;2.60;;;17.30;99.90;;;;;;4976615;28;20046;-78
2023/09/21 04:51:14;;;;;;;4.63;3.13;;;17.30;99.90;;;;;;4975735;28;20062;-74
2023/09/21 04:53:39;;;;;;;5.80;3.20;;;17.20;99.90;;;;;;4975989;28;20038;-76
2023/09/21 04:56:05;;;;;;;6.60;2.85;;;17.30;99.90;;;;;;4976171;28;20129;-85
2023/09/21 04:58:31;;;;;;;4.15;2.83;;;17.30;99.90;;;;;;4991627;28;20050;-80
2023/09/21 05:00:57;;;;;;;7.63;3.20;;;17.20;99.90;;;;;;4975898;28;20117;-78
2023/09/21 05:03:22;;;;;;;6.18;3.40;;;17.10;99.90;;;;;;4976133;28;20060;-80
2023/09/21 05:05:49;;;;;;;6.55;3.58;;;17.10;99.90;;;;;;4992826;28;20468;-78
2023/09/21 05:08:14;;;;;;;5.93;3.25;;;17.10;99.90;;;;;;4974859;28;20042;-82
2023/09/21 05:10:43;;;;;;;5.75;3.45;;;17.10;99.90;;;;;;4993733;28;20444;-76
2023/09/21 05:13:08;;;;;;;7.45;3.08;;;17.10;99.90;;;;;;4975138;28;20053;-81
2023/09/21 05:15:34;;;;;;;6.00;3.03;;;17.00;99.90;;;;;;4976260;28;20141;-80
2023/09/21 05:18:00;;;;;;;8.18;3.80;;;17.10;99.90;;;;;;4975636;28;20053;-90
2023/09/21 05:20:26;;;;;;;6.55;3.38;;;17.00;99.90;;;;;;4976194;28;20062;-82
2023/09/21 05:22:52;;;;;;;6.68;3.30;;;17.00;99.90;;;;;;4976086;28;20470;-79
2023/09/21 05:25:17;;;;;;;5.72;3.33;;;17.10;99.90;;;;;;4975155;28;20057;-78
2023/09/21 05:27:43;;;;;;;6.47;3.60;;;17.00;99.90;;;;;;4991289;28;20096;-80
2023/09/21 05:30:10;;;;;;;6.20;3.33;;;17.00;99.90;;;;;;4974703;28;20035;-82
2023/09/21 05:32:36;;;;;;;9.48;3.42;;;17.00;99.90;;;;;;4975147;28;20042;-80
2023/09/21 05:35:06;;;;;;;6.50;3.17;;;17.10;99.90;;;;;;4974928;28;20417;-77
2023/09/21 05:37:35;;;;;;;6.53;3.90;;;17.10;99.90;;;;;;4974578;28;20493;-76
2023/09/21 05:40:05;;;;;;;6.80;4.15;;;17.00;99.90;;;;;;4972782;28;20046;-76
2023/09/21 05:42:31;;;;;;;7.55;4.30;;;16.90;99.90;;;;;;4972539;28;20141;-79
2023/09/21 05:44:56;;;;;;;7.60;3.75;;;16.90;99.90;;;;;;4972266;28;20102;-79
2023/09/21 05:47:22;;;;;;;7.07;3.50;;;16.90;99.90;;;;;;4972741;28;20475;-79
2023/09/21 05:49:48;;;;;;;5.95;3.40;;;17.00;99.90;;;;;;4972985;28;20046;-75
2023/09/21 05:52:16;;;;;;;5.55;3.80;;;17.00;99.90;;;;;;4973346;28;20043;-75
2023/09/21 05:54:44;;;;;;;7.55;3.80;;;17.00;99.90;;;;;;4974062;28;20050;-78
2023/09/21 05:57:11;;;;;;;5.45;3.63;;;16.80;99.90;;;;;;4993014;28;20512;-87
2023/09/21 05:59:37;;;;;;;7.43;3.55;;;16.80;99.90;;;;;;4976039;28;20490;-81
2023/09/21 06:02:05;;;;;;;7.07;3.65;;;16.80;99.90;;;;;;4972613;28;20061;-79
2023/09/21 06:04:31;;;;;;;6.63;4.10;;;16.90;99.90;;;;;;4973429;28;20047;-76
2023/09/21 06:06:58;;;;;;;7.05;4.00;;;16.80;99.90;;;;;;4973431;28;20057;-81
2023/09/21 06:09:24;;;;;;;9.32;4.15;;;16.80;99.90;;;;;;4972575;28;20091;-79
2023/09/21 06:11:50;;;;;;;6.68;4.40;;;16.70;99.90;;;;;;4970369;28;20039;-77
2023/09/21 06:14:17;;;;;;;5.70;4.50;;;16.40;99.90;;;;;;4990641;28;20132;-77
2023/09/21 06:16:43;;;;;;;7.22;4.35;;;16.70;99.90;;;;;;4977288;28;20111;-78
2023/09/21 06:19:13;;;;;;;6.30;3.70;;;16.70;99.90;;;;;;4978352;28;20386;-79
2023/09/21 06:21:39;;;;;;;9.25;3.80;;;16.80;99.90;;;;;;4996498;28;20048;-76
2023/09/21 06:24:06;;;;;;;6.78;4.40;;;16.70;99.90;;;;;;4994665;28;20084;-77
2023/09/21 06:26:32;;;;;;;8.38;4.40;;;16.70;99.90;;;;;;4978343;28;20137;-75
2023/09/21 06:28:59;;;;;;;9.35;4.65;;;16.60;99.90;;;;;;4978213;28;20125;-75
2023/09/21 06:31:24;;;;;;;9.82;4.70;;;16.60;99.90;;;;;;4978226;28;20042;-75
2023/09/21 06:33:51;;;;;;;6.85;4.70;;;16.60;99.90;;;;;;4978071;28;20449;-74
2023/09/21 06:36:20;;;;;;;7.15;4.47;;;16.50;99.90;;;;;;4978212;28;20050;-74
2023/09/21 06:38:47;;;;;;;7.50;4.57;;;16.50;99.90;;;;;;4995708;28;20069;-74
2023/09/21 06:41:13;;;;;;;9.57;4.43;;;16.60;99.90;;;;;;4978200;28;20052;-74
2023/09/21 06:43:43;;;;;;;6.55;3.90;;;16.60;99.90;;;;;;4978041;28;20042;-73
2023/09/21 06:46:09;;;;;;;4.10;1.55;;;16.60;99.90;;;;;;4978068;28;20077;-74
2023/09/21 06:48:35;;;;;;;2.58;1.20;;;16.40;99.90;;;;;;4978166;28;20034;-73
2023/09/21 06:51:00;;;;;;;4.00;1.02;;;16.10;99.90;;;;;;4977274;28;20050;-73
2023/09/21 06:53:29;;;;;;;3.28;1.00;;;15.90;99.90;;;;;;4978234;28;20410;-73
2023/09/21 06:55:55;;;;;;;3.92;0.98;;;15.70;99.90;;;;;;4977766;28;20077;-73
2023/09/21 06:58:21;;;;;;;4.25;1.10;;;15.50;99.90;;;;;;4977334;28;20125;-73
2023/09/21 07:00:47;;;;;;;2.22;1.00;;;15.30;99.90;;;;;;4977814;28;20121;-74
2023/09/21 07:03:13;;;;;;;2.70;1.00;;;15.20;99.90;;;;;;4978054;28;20038;-75
2023/09/21 07:05:43;;;;;;;2.63;0.95;;;15.10;99.90;;;;;;4977267;28;20050;-74
2023/09/21 07:08:10;;;;;;;4.80;1.20;;;15.10;99.90;;;;;;4977638;28;20130;-75
2023/09/21 07:10:35;;;;;;;2.50;0.95;;;15.10;99.90;;;;;;4995211;28;20161;-74
2023/09/21 07:13:01;;;;;;;3.60;1.00;;;15.10;99.90;;;;;;4976596;28;20132;-75
2023/09/21 07:15:28;;;;;;;2.42;1.05;;;15.10;99.90;;;;;;4977856;28;20043;-75
2023/09/21 07:17:55;;;;;;;2.83;0.95;;;15.10;99.90;;;;;;4977703;28;20170;-75
2023/09/21 07:20:26;;;;;;;7.70;1.25;;;15.00;99.90;;;;;;4977749;28;20371;-75
2023/09/21 07:22:52;;;;;;;2.72;0.95;;;15.00;99.90;;;;;;4978077;28;20050;-75
2023/09/21 07:25:19;;;;;;;4.47;1.33;;;15.00;99.90;;;;;;4977267;28;20097;-75
2023/09/21 07:27:46;;;;;;;4.38;1.77;;;15.00;99.90;;;;;;4976491;28;20043;-75
2023/09/21 07:30:13;;;;;;;6.10;1.63;;;14.90;99.90;;;;;;4995221;28;20078;-75
2023/09/21 07:32:39;;;;;;;3.90;1.50;;;14.90;99.90;;;;;;4977894;28;20043;-75
2023/09/21 07:35:06;;;;;;;3.15;1.20;;;14.90;99.90;;;;;;4977401;28;20553;-74
2023/09/21 07:37:35;;;;;;;3.15;1.10;;;14.80;99.90;;;;;;4978355;28;20445;-75
2023/09/21 07:40:06;;;;;;;3.10;1.30;;;14.80;99.90;;;;;;4976954;28;20042;-75
2023/09/21 07:42:33;;;;;;;3.85;1.30;;;14.80;99.90;;;;;;4977863;28;20050;-75
2023/09/21 07:44:59;;;;;;;2.97;1.23;;;14.90;99.90;;;;;;4977343;28;20042;-75
2023/09/21 07:47:26;;;;;;;2.80;1.27;;;15.00;99.90;;;;;;4977394;28;20168;-74
2023/09/21 07:49:55;;;;;;;3.33;1.02;;;14.90;99.90;;;;;;4977444;28;20062;-78
2023/09/21 07:52:23;;;;;;;2.45;0.95;;;14.90;99.90;;;;;;4977950;28;20046;-82
2023/09/21 07:54:50;;;;;;;3.63;1.20;;;14.90;99.90;;;;;;4975739;28;20482;-84
2023/09/21 07:57:16;;;;;;;3.50;0.93;;;15.00;99.90;;;;;;4994339;28;20046;-82
2023/09/21 07:59:42;;;;;;;4.63;1.60;;;15.00;99.90;;;;;;4973183;28;20121;-84
2023/09/21 08:02:09;;;;;;;3.10;1.23;;;15.00;99.90;;;;;;4975761;28;20137;-79
2023/09/21 08:04:36;;;;;;;2.47;1.00;;;15.10;99.90;;;;;;4977054;28;20089;-77
2023/09/21 08:07:05;;;;;;;2.97;1.27;;;15.10;99.90;;;;;;4976136;28;20057;-78
2023/09/21 08:09:33;;;;;;;2.40;1.05;;;15.10;99.90;;;;;;4976254;28;20048;-79
2023/09/21 08:12:00;;;;;;;2.40;1.15;;;15.20;99.90;;;;;;4976592;28;20065;-80
2023/09/21 08:14:25;;;;;;;3.95;1.27;;;15.30;99.90;;;;;;4993829;28;20042;-79
2023/09/21 08:16:53;;;;;;;5.38;1.27;;;15.20;99.90;;;;;;4976231;28;20113;-80
2023/09/21 08:19:19;;;;;;;4.70;1.50;;;15.30;99.90;;;;;;4976870;28;20500;-78
2023/09/21 08:21:45;;;;;;;3.05;1.05;;;15.30;99.90;;;;;;4975975;28;20038;-77
2023/09/21 08:24:10;;;;;;;3.60;1.30;;;15.30;99.90;;;;;;4976324;28;20481;-75
2023/09/21 08:26:37;;;;;;;4.10;1.10;;;15.30;99.90;;;;;;4993293;28;20054;-76
2023/09/21 08:29:04;;;;;;;2.92;0.98;;;15.20;99.90;;;;;;4975957;28;20102;-72
2023/09/21 08:31:30;;;;;;;3.15;1.08;;;15.20;99.90;;;;;;4993693;28;20054;-75
2023/09/21 08:33:56;;;;;;;4.43;1.05;;;15.30;99.90;;;;;;4976838;28;20046;-75
2023/09/21 08:36:21;;;;;;;2.92;0.90;;;15.30;99.90;;;;;;4976184;28;20078;-74
2023/09/21 08:38:47;;;;;;;4.65;1.35;;;15.30;99.90;;;;;;4976659;28;20046;-73
2023/09/21 08:41:13;;;;;;;3.53;1.10;;;15.30;99.90;;;;;;4976623;28;20099;-76
2023/09/21 08:43:43;;;;;;;3.08;1.00;;;15.40;99.90;;;;;;4975446;28;20258;-77
2023/09/21 08:46:11;;;;;;;4.63;1.30;;;15.40;99.90;;;;;;4976449;28;20042;-76
2023/09/21 08:48:39;;;;;;;3.45;1.25;;;15.40;99.90;;;;;;4976597;28;20054;-76
2023/09/21 08:51:09;;;;;;;2.08;0.93;;;15.50;99.90;;;;;;4975515;28;20050;-76
2023/09/21 08:53:36;;;;;;;3.08;1.23;;;15.50;99.90;;;;;;4975961;28;20054;-77
2023/09/21 08:56:03;;;;;;;4.78;1.48;;;15.40;99.90;;;;;;4975578;28;20066;-76
2023/09/21 08:58:37;;;;;;;3.20;1.10;;;15.40;99.90;;;;;;4975198;28;20077;-76
2023/09/21 09:01:05;;;;;;;3.00;1.17;;;15.40;99.90;;;;;;4975509;28;20077;-77
2023/09/21 09:03:30;;;;;;;3.33;1.20;;;15.50;99.90;;;;;;4976018;28;20046;-79
2023/09/21 09:05:59;;;;;;;2.75;0.90;;;15.50;99.90;;;;;;4975264;28;20064;-82
2023/09/21 09:08:25;;;;;;;3.83;1.15;;;15.50;99.90;;;;;;4989331;28;20034;-80
2023/09/21 09:10:53;;;;;;;3.35;1.10;;;15.50;99.90;;;;;;4971152;28;20051;-84
2023/09/21 09:13:19;;;;;;;3.30;0.93;;;15.60;99.90;;;;;;4975511;28;20477;-78
2023/09/21 09:15:45;;;;;;;3.90;1.15;;;15.60;99.90;;;;;;4975594;28;20069;-78
2023/09/21 09:18:15;;;;;;;2.88;0.90;;;15.60;99.90;;;;;;4974572;28;20097;-79
2023/09/21 09:20:44;;;;;;;1.98;0.90;;;15.60;99.90;;;;;;4975699;28;20081;-80
2023/09/21 09:23:14;;;;;;;3.15;1.10;;;15.60;99.90;;;;;;4975386;28;20117;-81
2023/09/21 09:25:40;;;;;;;2.42;0.90;;;15.60;99.90;;;;;;4974952;28;20045;-80
2023/09/21 09:28:09;;;;;;;4.78;1.08;;;15.60;99.90;;;;;;4992334;28;20050;-79
2023/09/21 09:30:36;;;;;;;3.50;1.20;;;15.60;99.90;;;;;;4975753;28;20049;-79
2023/09/21 09:33:03;;;;;;;2.95;1.00;;;15.70;99.90;;;;;;4990822;28;20046;-78
2023/09/21 09:35:32;;;;;;;2.95;1.10;;;15.70;99.90;;;;;;4975511;28;20077;-79
2023/09/21 09:37:58;;;;;;;3.40;1.20;;;15.70;99.90;;;;;;4975111;28;20043;-79
2023/09/21 09:40:25;;;;;;;3.90;1.27;;;15.60;99.90;;;;;;4992033;28;20398;-76
2023/09/21 09:42:52;;;;;;;3.05;1.17;;;15.60;99.90;;;;;;4992737;28;20138;-76
2023/09/21 09:45:30;;;;;;;2.08;1.00;;;15.50;99.90;;;;;;4976168;28;20057;-77
2023/09/21 09:48:02;;;;;;;4.30;1.17;;;15.60;99.90;;;;;;4974811;28;20053;-77
2023/09/21 09:50:33;;;;;;;3.05;1.20;;;15.70;99.90;;;;;;4975280;28;20042;-78
2023/09/21 09:53:06;;;;;;;2.47;1.35;;;15.70;99.90;;;;;;4975093;28;20046;-83
2023/09/21 09:55:42;;;;;;;3.28;1.30;;;15.60;99.90;;;;;;4975217;28;20066;-82
2023/09/21 09:58:08;;;;;;;3.47;1.17;;;15.80;99.90;;;;;;4975404;28;20495;-79
2023/09/21 10:00:35;;;;;;;5.05;1.38;;;15.80;99.90;;;;;;4974460;28;20049;-78
2023/09/21 10:03:03;;;;;;;3.72;1.30;;;16.00;99.90;;;;;;4975066;28;20406;-78
2023/09/21 10:05:30;;;;;;;4.32;1.20;;;16.10;99.90;;;;;;4974989;28;20386;-80
2023/09/21 10:07:59;;;;;;;2.30;0.98;;;16.00;99.90;;;;;;4974241;28;20422;-79
2023/09/21 10:10:46;;;;;;;2.80;0.93;;;16.20;99.90;;;;;;4975341;28;20065;-76
2023/09/21 10:13:13;;;;;;;2.33;1.00;;;16.10;99.90;;;;;;4975174;28;20066;-77
2023/09/21 10:15:40;;;;;;;2.50;1.08;;;16.20;99.90;;;;;;4971588;28;20047;-78
2023/09/21 10:18:07;;;;;;;5.40;0.98;;;16.00;99.90;;;;;;4972066;28;20050;-76
2023/09/21 10:20:36;;;;;;;3.10;1.10;;;15.90;99.90;;;;;;4972390;28;20059;-79
2023/09/21 10:23:09;;;;;;;4.75;1.13;;;16.10;99.90;;;;;;4971445;28;20434;-82
2023/09/21 10:25:45;;;;;;;4.55;1.38;;;16.10;99.90;;;;;;4972668;28;20054;-80
2023/09/21 10:28:29;;;;;;;;;;;16.10;99.90;;;;;;4974940;28;20805;-80
2023/09/21 10:31:08;;;;;;;3.65;1.10;;;16.00;99.90;;;;;;4992450;28;20389;-78
2023/09/21 10:33:48;;;;;;;3.45;1.38;;;16.00;99.90;;;;;;4993079;28;20137;-81
2023/09/21 10:36:26;;;;;;;2.53;1.10;;;16.00;99.90;;;;;;4992124;28;20166;-80
2023/09/21 10:39:05;;;;;;;3.42;1.10;;;15.90;99.90;;;;;;4974958;28;20057;-77
2023/09/21 10:41:31;;;;;;;4.38;1.48;;;15.90;99.90;;;;;;4992611;28;20072;-73
2023/09/21 10:44:02;;;;;;;2.95;1.30;;;15.80;99.90;;;;;;4992077;28;20038;-75
2023/09/21 10:46:33;;;;;;;3.83;1.50;;;15.80;99.90;;;;;;4975278;28;20104;-73
2023/09/21 10:49:05;;;;;;;3.00;1.50;;;15.80;99.90;;;;;;4992204;28;20046;-75
2023/09/21 10:51:31;;;;;;;3.53;1.30;;;15.80;99.90;;;;;;4992287;28;20054;-77
2023/09/21 10:53:59;;;;;;;3.30;1.35;;;15.90;99.90;;;;;;4974912;28;20046;-78
2023/09/21 10:56:27;;;;;;;3.22;1.40;;;15.90;99.90;;;;;;4974205;28;20417;-75
2023/09/21 10:58:54;;;;;;;3.55;1.55;;;15.90;99.90;;;;;;4974388;28;20049;-78
2023/09/21 11:01:21;;;;;;;3.83;1.20;;;16.00;99.90;;;;;;4974818;28;20073;-74
2023/09/21 11:03:50;;;;;;;4.65;1.30;;;16.00;99.90;;;;;;4977463;28;20039;-75
2023/09/21 11:06:17;;;;;;;2.80;1.45;;;16.00;99.90;;;;;;4978599;28;20046;-75
2023/09/21 11:08:45;;;;;;;3.20;1.27;;;16.10;99.90;;;;;;4979013;28;20125;-75
2023/09/21 11:11:13;;;;;;;3.03;1.38;;;16.10;99.90;;;;;;4977901;28;20054;-76
2023/09/21 11:13:39;;;;;;;2.72;1.52;;;16.10;99.90;;;;;;4978415;28;20097;-76
2023/09/21 11:16:06;;;;;;;4.03;1.70;;;16.10;99.90;;;;;;4977458;28;20043;-76
2023/09/21 11:18:32;;;;;;;2.97;1.45;;;16.10;99.90;;;;;;4978070;28;20433;-76
2023/09/21 11:20:58;;;;;;;4.90;1.60;;;16.10;99.90;;;;;;4993839;28;20050;-76
2023/09/21 11:23:24;;;;;;;2.92;1.30;;;16.10;99.90;;;;;;4988849;28;20054;-76
2023/09/21 11:25:50;;;;;;;2.60;1.13;;;16.10;99.90;;;;;;4977291;28;20052;-76
2023/09/21 11:28:19;;;;;;;3.88;1.40;;;15.90;99.90;;;;;;4975441;28;20051;-76
2023/09/21 11:30:45;;;;;;;3.50;1.20;;;15.80;99.90;;;;;;4975354;28;20490;-75
2023/09/21 11:33:12;;;;;;;2.72;1.08;;;15.80;99.90;;;;;;4973984;28;20074;-76
2023/09/21 11:35:38;;;;;;;3.42;1.20;;;15.90;99.90;;;;;;4977618;28;20049;-76
2023/09/21 11:38:04;;;;;;;3.22;1.02;;;15.90;99.90;;;;;;4977452;28;20046;-75
2023/09/21 11:40:31;;;;;;;4.40;1.35;;;16.00;99.90;;;;;;4977282;28;20035;-76
2023/09/21 11:42:59;;;;;;;4.05;1.52;;;15.90;99.90;;;;;;4977653;28;20121;-75
2023/09/21 11:45:26;;;;;;;3.67;1.70;;;16.00;99.90;;;;;;4977384;28;20062;-75
2023/09/21 11:47:58;;;;;;;2.97;1.50;;;16.00;99.90;;;;;;4977871;28;20050;-75
2023/09/21 11:50:32;;;;;;;2.80;1.40;;;16.10;99.90;;;;;;4995273;28;20046;-75
2023/09/21 11:52:58;;;;;;;2.40;1.30;;;16.10;99.90;;;;;;4976757;28;20061;-75
2023/09/21 11:55:25;;;;;;;3.28;1.70;;;16.10;99.90;;;;;;4977818;28;20398;-76
2023/09/21 11:57:51;;;;;;;3.00;1.30;;;16.00;99.90;;;;;;4977406;28;20082;-76
2023/09/21 12:00:27;;;;;;;3.25;1.30;;;16.00;99.90;;;;;;4977025;28;20136;-76
2023/09/21 12:02:56;;;;;;;3.08;1.42;;;16.00;99.90;;;;;;4977209;28;20089;-76
2023/09/21 12:05:22;;;;;;;3.10;1.30;;;15.90;99.90;;;;;;4977609;28;20383;-76
2023/09/21 12:07:48;;;;;;;3.67;1.40;;;15.90;99.90;;;;;;4976678;28;20046;-76
2023/09/21 12:10:15;;;;;;;2.72;1.30;;;16.00;99.90;;;;;;4977761;28;20050;-76
2023/09/21 12:12:42;;;;;;;3.33;1.40;;;15.90;99.90;;;;;;4977140;28;20181;-75
2023/09/21 12:15:12;;;;;;;2.72;1.10;;;16.00;99.90;;;;;;4993711;28;20050;-75
2023/09/21 12:17:38;;;;;;;2.90;1.13;;;16.10;99.90;;;;;;4977517;28;20214;-76
2023/09/21 12:20:11;;;;;;;3.65;1.25;;;16.10;99.90;;;;;;4977071;28;20074;-76
2023/09/21 12:22:37;;;;;;;3.30;1.27;;;16.10;99.90;;;;;;4994193;28;20046;-77
2023/09/21 12:25:06;;;;;;;4.18;1.75;;;16.10;99.90;;;;;;4976653;28;20125;-77
2023/09/21 12:27:32;;;;;;;2.63;1.10;;;16.10;99.90;;;;;;4976635;28;20121;-76
2023/09/21 12:29:58;;;;;;;2.60;1.20;;;16.20;99.90;;;;;;4973532;28;20126;-76
2023/09/21 12:32:24;;;;;;;2.00;1.05;;;16.20;99.90;;;;;;4973877;28;20039;-76
2023/09/21 12:34:51;;;;;;;2.72;1.15;;;16.30;99.90;;;;;;4972808;28;20062;-76
2023/09/21 12:37:18;;;;;;;2.47;1.10;;;16.50;99.90;;;;;;4973994;28;20093;-76
2023/09/21 12:39:44;;;;;;;2.70;1.20;;;16.60;99.90;;;;;;4974944;28;20046;-76
2023/09/21 12:42:10;;;;;;;3.83;1.10;;;16.60;99.90;;;;;;4975807;28;20046;-76
2023/09/21 12:44:36;;;;;;;3.30;1.15;;;16.70;99.90;;;;;;4976762;28;20038;-76
2023/09/21 12:47:02;;;;;;;2.70;1.30;;;16.80;99.90;;;;;;4976394;28;20056;-76
2023/09/21 12:49:28;;;;;;;2.97;1.33;;;16.80;99.90;;;;;;4976242;28;20113;-76
2023/09/21 12:51:54;;;;;;;2.10;1.35;;;16.60;99.90;;;;;;4976620;28;20050;-76